sensor_id;sensor_type;location;lat;lon;timestamp;P1;durP1;ratioP1;P2;durP2;ratioP2
44130;SDS011;29792;48.726;9.248;2023-05-07T00:01:30;3.60;;;1.38;;
44130;SDS011;29792;48.726;9.248;2023-05-07T00:03:56;3.40;;;1.60;;
44130;SDS011;29792;48.726;9.248;2023-05-07T00:06:21;2.03;;;1.73;;
44130;SDS011;29792;48.726;9.248;2023-05-07T00:08:47;1.83;;;1.08;;
44130;SDS011;29792;48.726;9.248;2023-05-07T00:11:12;2.72;;;1.73;;
44130;SDS011;29792;48.726;9.248;2023-05-07T00:13:39;1.98;;;1.50;;
44130;SDS011;29792;48.726;9.248;2023-05-07T00:16:04;2.40;;;1.85;;
44130;SDS011;29792;48.726;9.248;2023-05-07T00:18:30;1.73;;;1.05;;
44130;SDS011;29792;48.726;9.248;2023-05-07T00:20:55;2.67;;;1.48;;
44130;SDS011;29792;48.726;9.248;2023-05-07T00:23:21;1.58;;;1.17;;
44130;SDS011;29792;48.726;9.248;2023-05-07T00:25:46;1.63;;;1.10;;
44130;SDS011;29792;48.726;9.248;2023-05-07T00:28:11;1.60;;;1.10;;
44130;SDS011;29792;48.726;9.248;2023-05-07T00:30:37;2.20;;;1.30;;
44130;SDS011;29792;48.726;9.248;2023-05-07T00:33:02;1.77;;;1.00;;
44130;SDS011;29792;48.726;9.248;2023-05-07T00:35:28;1.80;;;1.30;;
44130;SDS011;29792;48.726;9.248;2023-05-07T00:37:54;1.75;;;1.08;;
44130;SDS011;29792;48.726;9.248;2023-05-07T00:40:20;2.25;;;2.05;;
44130;SDS011;29792;48.726;9.248;2023-05-07T00:42:45;1.80;;;1.70;;
44130;SDS011;29792;48.726;9.248;2023-05-07T00:45:12;5.18;;;1.77;;
44130;SDS011;29792;48.726;9.248;2023-05-07T00:47:38;1.58;;;1.15;;
44130;SDS011;29792;48.726;9.248;2023-05-07T00:50:05;1.17;;;1.08;;
44130;SDS011;29792;48.726;9.248;2023-05-07T00:52:31;2.40;;;1.33;;
44130;SDS011;29792;48.726;9.248;2023-05-07T00:54:56;1.90;;;1.77;;
44130;SDS011;29792;48.726;9.248;2023-05-07T00:57:22;1.50;;;1.40;;
44130;SDS011;29792;48.726;9.248;2023-05-07T00:59:49;2.00;;;1.45;;
44130;SDS011;29792;48.726;9.248;2023-05-07T01:02:16;2.30;;;2.10;;
44130;SDS011;29792;48.726;9.248;2023-05-07T01:04:41;2.00;;;1.75;;
44130;SDS011;29792;48.726;9.248;2023-05-07T01:07:07;1.10;;;1.00;;
44130;SDS011;29792;48.726;9.248;2023-05-07T01:09:33;3.00;;;2.17;;
44130;SDS011;29792;48.726;9.248;2023-05-07T01:12:00;3.15;;;1.58;;
44130;SDS011;29792;48.726;9.248;2023-05-07T01:14:25;2.28;;;2.08;;
44130;SDS011;29792;48.726;9.248;2023-05-07T01:16:51;2.83;;;1.65;;
44130;SDS011;29792;48.726;9.248;2023-05-07T01:19:18;2.17;;;1.42;;
44130;SDS011;29792;48.726;9.248;2023-05-07T01:21:47;1.80;;;1.45;;
44130;SDS011;29792;48.726;9.248;2023-05-07T01:24:14;2.20;;;1.73;;
44130;SDS011;29792;48.726;9.248;2023-05-07T01:26:39;1.42;;;1.33;;
44130;SDS011;29792;48.726;9.248;2023-05-07T01:29:05;2.88;;;2.03;;
44130;SDS011;29792;48.726;9.248;2023-05-07T01:31:32;1.65;;;1.55;;
44130;SDS011;29792;48.726;9.248;2023-05-07T01:33:59;1.85;;;1.55;;
44130;SDS011;29792;48.726;9.248;2023-05-07T01:36:26;3.42;;;1.63;;
44130;SDS011;29792;48.726;9.248;2023-05-07T01:38:54;2.75;;;1.08;;
44130;SDS011;29792;48.726;9.248;2023-05-07T01:41:19;2.30;;;1.52;;
44130;SDS011;29792;48.726;9.248;2023-05-07T01:43:46;2.03;;;1.80;;
44130;SDS011;29792;48.726;9.248;2023-05-07T01:46:12;3.10;;;1.90;;
44130;SDS011;29792;48.726;9.248;2023-05-07T01:48:38;4.32;;;1.55;;
44130;SDS011;29792;48.726;9.248;2023-05-07T01:51:04;1.60;;;1.30;;
44130;SDS011;29792;48.726;9.248;2023-05-07T01:53:35;1.33;;;1.23;;
44130;SDS011;29792;48.726;9.248;2023-05-07T01:56:01;3.53;;;1.58;;
44130;SDS011;29792;48.726;9.248;2023-05-07T01:58:26;2.72;;;1.70;;
44130;SDS011;29792;48.726;9.248;2023-05-07T02:00:51;1.80;;;1.70;;
44130;SDS011;29792;48.726;9.248;2023-05-07T02:03:17;2.25;;;1.45;;
44130;SDS011;29792;48.726;9.248;2023-05-07T02:05:42;2.00;;;1.35;;
44130;SDS011;29792;48.726;9.248;2023-05-07T02:08:07;1.30;;;1.20;;
44130;SDS011;29792;48.726;9.248;2023-05-07T02:10:32;3.03;;;1.60;;
44130;SDS011;29792;48.726;9.248;2023-05-07T02:12:57;2.63;;;1.70;;
44130;SDS011;29792;48.726;9.248;2023-05-07T02:15:24;1.65;;;1.25;;
44130;SDS011;29792;48.726;9.248;2023-05-07T02:18:00;1.65;;;1.27;;
44130;SDS011;29792;48.726;9.248;2023-05-07T02:20:26;2.42;;;1.45;;
44130;SDS011;29792;48.726;9.248;2023-05-07T02:22:52;2.47;;;1.70;;
44130;SDS011;29792;48.726;9.248;2023-05-07T02:25:17;1.42;;;1.30;;
44130;SDS011;29792;48.726;9.248;2023-05-07T02:27:42;1.75;;;1.50;;
44130;SDS011;29792;48.726;9.248;2023-05-07T02:30:08;2.03;;;1.33;;
44130;SDS011;29792;48.726;9.248;2023-05-07T02:32:33;2.58;;;2.15;;
44130;SDS011;29792;48.726;9.248;2023-05-07T02:34:58;2.95;;;1.98;;
44130;SDS011;29792;48.726;9.248;2023-05-07T02:37:24;5.18;;;1.30;;
44130;SDS011;29792;48.726;9.248;2023-05-07T02:39:49;2.15;;;1.20;;
44130;SDS011;29792;48.726;9.248;2023-05-07T02:42:15;2.95;;;1.75;;
44130;SDS011;29792;48.726;9.248;2023-05-07T02:44:40;1.80;;;1.45;;
44130;SDS011;29792;48.726;9.248;2023-05-07T02:47:05;1.75;;;1.65;;
44130;SDS011;29792;48.726;9.248;2023-05-07T02:49:33;2.13;;;1.55;;
44130;SDS011;29792;48.726;9.248;2023-05-07T02:51:58;2.25;;;1.77;;
44130;SDS011;29792;48.726;9.248;2023-05-07T02:54:23;1.73;;;1.13;;
44130;SDS011;29792;48.726;9.248;2023-05-07T02:56:49;1.88;;;1.38;;
44130;SDS011;29792;48.726;9.248;2023-05-07T02:59:14;2.20;;;1.92;;
44130;SDS011;29792;48.726;9.248;2023-05-07T03:01:39;3.78;;;2.45;;
44130;SDS011;29792;48.726;9.248;2023-05-07T03:04:04;2.33;;;1.20;;
44130;SDS011;29792;48.726;9.248;2023-05-07T03:06:30;3.28;;;2.22;;
44130;SDS011;29792;48.726;9.248;2023-05-07T03:08:55;4.05;;;1.80;;
44130;SDS011;29792;48.726;9.248;2023-05-07T03:11:20;2.63;;;1.63;;
44130;SDS011;29792;48.726;9.248;2023-05-07T03:13:46;4.03;;;2.35;;
44130;SDS011;29792;48.726;9.248;2023-05-07T03:16:11;3.22;;;2.20;;
44130;SDS011;29792;48.726;9.248;2023-05-07T03:18:36;3.22;;;1.90;;
44130;SDS011;29792;48.726;9.248;2023-05-07T03:21:02;3.10;;;2.20;;
44130;SDS011;29792;48.726;9.248;2023-05-07T03:23:27;2.15;;;1.88;;
44130;SDS011;29792;48.726;9.248;2023-05-07T03:25:52;2.10;;;1.90;;
44130;SDS011;29792;48.726;9.248;2023-05-07T03:28:17;2.45;;;1.92;;
44130;SDS011;29792;48.726;9.248;2023-05-07T03:30:43;2.75;;;1.63;;
44130;SDS011;29792;48.726;9.248;2023-05-07T03:33:08;2.88;;;2.17;;
44130;SDS011;29792;48.726;9.248;2023-05-07T03:35:33;2.88;;;2.15;;
44130;SDS011;29792;48.726;9.248;2023-05-07T03:37:58;2.13;;;1.92;;
44130;SDS011;29792;48.726;9.248;2023-05-07T03:40:24;3.35;;;2.63;;
44130;SDS011;29792;48.726;9.248;2023-05-07T03:42:49;2.30;;;2.05;;
44130;SDS011;29792;48.726;9.248;2023-05-07T03:45:14;2.45;;;2.25;;
44130;SDS011;29792;48.726;9.248;2023-05-07T03:47:40;5.35;;;2.10;;
44130;SDS011;29792;48.726;9.248;2023-05-07T03:50:05;3.15;;;1.83;;
44130;SDS011;29792;48.726;9.248;2023-05-07T03:52:31;3.58;;;1.65;;
44130;SDS011;29792;48.726;9.248;2023-05-07T03:54:56;2.90;;;1.90;;
44130;SDS011;29792;48.726;9.248;2023-05-07T03:57:21;2.63;;;1.95;;
44130;SDS011;29792;48.726;9.248;2023-05-07T03:59:46;5.35;;;1.65;;
44130;SDS011;29792;48.726;9.248;2023-05-07T04:02:12;1.88;;;1.52;;
44130;SDS011;29792;48.726;9.248;2023-05-07T04:04:37;3.58;;;3.08;;
44130;SDS011;29792;48.726;9.248;2023-05-07T04:07:02;13.10;;;8.85;;
44130;SDS011;29792;48.726;9.248;2023-05-07T04:09:28;4.32;;;3.85;;
44130;SDS011;29792;48.726;9.248;2023-05-07T04:11:53;5.38;;;3.80;;
44130;SDS011;29792;48.726;9.248;2023-05-07T04:14:18;5.50;;;3.40;;
44130;SDS011;29792;48.726;9.248;2023-05-07T04:16:43;4.60;;;3.00;;
44130;SDS011;29792;48.726;9.248;2023-05-07T04:19:09;2.47;;;1.80;;
44130;SDS011;29792;48.726;9.248;2023-05-07T04:21:34;2.45;;;2.10;;
44130;SDS011;29792;48.726;9.248;2023-05-07T04:23:59;3.67;;;2.40;;
44130;SDS011;29792;48.726;9.248;2023-05-07T04:26:25;2.83;;;2.50;;
44130;SDS011;29792;48.726;9.248;2023-05-07T04:28:50;3.35;;;2.05;;
44130;SDS011;29792;48.726;9.248;2023-05-07T04:31:15;3.83;;;2.42;;
44130;SDS011;29792;48.726;9.248;2023-05-07T04:33:41;2.67;;;2.05;;
44130;SDS011;29792;48.726;9.248;2023-05-07T04:36:06;3.20;;;2.47;;
44130;SDS011;29792;48.726;9.248;2023-05-07T04:38:32;4.22;;;2.20;;
44130;SDS011;29792;48.726;9.248;2023-05-07T04:41:02;6.18;;;4.22;;
44130;SDS011;29792;48.726;9.248;2023-05-07T04:43:28;3.33;;;3.00;;
44130;SDS011;29792;48.726;9.248;2023-05-07T04:45:53;7.93;;;3.75;;
44130;SDS011;29792;48.726;9.248;2023-05-07T04:48:18;3.33;;;2.40;;
44130;SDS011;29792;48.726;9.248;2023-05-07T04:50:48;2.97;;;2.13;;
44130;SDS011;29792;48.726;9.248;2023-05-07T04:53:16;4.20;;;2.53;;
44130;SDS011;29792;48.726;9.248;2023-05-07T04:55:42;2.58;;;2.38;;
44130;SDS011;29792;48.726;9.248;2023-05-07T04:58:08;4.03;;;2.70;;
44130;SDS011;29792;48.726;9.248;2023-05-07T05:00:33;3.00;;;1.75;;
44130;SDS011;29792;48.726;9.248;2023-05-07T05:02:59;3.10;;;2.22;;
44130;SDS011;29792;48.726;9.248;2023-05-07T05:05:24;2.40;;;2.20;;
44130;SDS011;29792;48.726;9.248;2023-05-07T05:07:49;3.50;;;1.80;;
44130;SDS011;29792;48.726;9.248;2023-05-07T05:10:16;2.50;;;2.05;;
44130;SDS011;29792;48.726;9.248;2023-05-07T05:12:42;2.58;;;2.08;;
44130;SDS011;29792;48.726;9.248;2023-05-07T05:15:07;2.80;;;2.50;;
44130;SDS011;29792;48.726;9.248;2023-05-07T05:17:33;3.72;;;2.40;;
44130;SDS011;29792;48.726;9.248;2023-05-07T05:19:59;3.72;;;2.78;;
44130;SDS011;29792;48.726;9.248;2023-05-07T05:22:25;5.22;;;2.72;;
44130;SDS011;29792;48.726;9.248;2023-05-07T05:24:50;4.65;;;2.70;;
44130;SDS011;29792;48.726;9.248;2023-05-07T05:27:16;3.08;;;2.60;;
44130;SDS011;29792;48.726;9.248;2023-05-07T05:29:41;4.88;;;1.98;;
44130;SDS011;29792;48.726;9.248;2023-05-07T05:32:06;4.25;;;3.40;;
44130;SDS011;29792;48.726;9.248;2023-05-07T05:34:31;5.80;;;3.67;;
44130;SDS011;29792;48.726;9.248;2023-05-07T05:36:58;5.65;;;3.30;;
44130;SDS011;29792;48.726;9.248;2023-05-07T05:39:24;3.42;;;2.45;;
44130;SDS011;29792;48.726;9.248;2023-05-07T05:41:49;3.92;;;3.00;;
44130;SDS011;29792;48.726;9.248;2023-05-07T05:44:15;3.60;;;2.72;;
44130;SDS011;29792;48.726;9.248;2023-05-07T05:46:40;3.25;;;2.95;;
44130;SDS011;29792;48.726;9.248;2023-05-07T05:49:05;3.75;;;2.53;;
44130;SDS011;29792;48.726;9.248;2023-05-07T05:51:31;3.67;;;2.55;;
44130;SDS011;29792;48.726;9.248;2023-05-07T05:53:56;3.28;;;2.97;;
44130;SDS011;29792;48.726;9.248;2023-05-07T05:56:21;4.63;;;3.33;;
44130;SDS011;29792;48.726;9.248;2023-05-07T05:58:46;3.30;;;3.00;;
44130;SDS011;29792;48.726;9.248;2023-05-07T06:01:12;2.92;;;2.60;;
44130;SDS011;29792;48.726;9.248;2023-05-07T06:03:37;3.53;;;2.83;;
44130;SDS011;29792;48.726;9.248;2023-05-07T06:06:02;2.80;;;2.60;;
44130;SDS011;29792;48.726;9.248;2023-05-07T06:08:29;2.42;;;2.00;;
44130;SDS011;29792;48.726;9.248;2023-05-07T06:10:55;2.67;;;1.80;;
44130;SDS011;29792;48.726;9.248;2023-05-07T06:13:20;2.88;;;2.17;;
44130;SDS011;29792;48.726;9.248;2023-05-07T06:15:45;3.03;;;2.30;;
44130;SDS011;29792;48.726;9.248;2023-05-07T06:18:11;2.58;;;2.38;;
44130;SDS011;29792;48.726;9.248;2023-05-07T06:20:36;2.90;;;2.63;;
44130;SDS011;29792;48.726;9.248;2023-05-07T06:23:01;3.78;;;3.38;;
44130;SDS011;29792;48.726;9.248;2023-05-07T06:25:27;4.15;;;3.17;;
44130;SDS011;29792;48.726;9.248;2023-05-07T06:27:52;2.30;;;1.85;;
44130;SDS011;29792;48.726;9.248;2023-05-07T06:30:17;2.97;;;2.17;;
44130;SDS011;29792;48.726;9.248;2023-05-07T06:32:42;3.25;;;2.95;;
44130;SDS011;29792;48.726;9.248;2023-05-07T06:35:08;3.22;;;2.70;;
44130;SDS011;29792;48.726;9.248;2023-05-07T06:37:33;3.05;;;2.60;;
44130;SDS011;29792;48.726;9.248;2023-05-07T06:39:58;2.72;;;2.47;;
44130;SDS011;29792;48.726;9.248;2023-05-07T06:42:24;4.53;;;2.78;;
44130;SDS011;29792;48.726;9.248;2023-05-07T06:44:49;4.85;;;2.42;;
44130;SDS011;29792;48.726;9.248;2023-05-07T06:47:14;3.42;;;2.67;;
44130;SDS011;29792;48.726;9.248;2023-05-07T06:49:39;4.25;;;2.67;;
44130;SDS011;29792;48.726;9.248;2023-05-07T06:52:05;2.50;;;2.15;;
44130;SDS011;29792;48.726;9.248;2023-05-07T06:54:30;3.28;;;2.97;;
44130;SDS011;29792;48.726;9.248;2023-05-07T06:56:55;3.45;;;3.15;;
44130;SDS011;29792;48.726;9.248;2023-05-07T06:59:21;5.82;;;3.70;;
44130;SDS011;29792;48.726;9.248;2023-05-07T07:01:46;3.53;;;3.22;;
44130;SDS011;29792;48.726;9.248;2023-05-07T07:04:11;4.20;;;3.35;;
44130;SDS011;29792;48.726;9.248;2023-05-07T07:06:36;2.70;;;2.50;;
44130;SDS011;29792;48.726;9.248;2023-05-07T07:09:02;4.18;;;2.72;;
44130;SDS011;29792;48.726;9.248;2023-05-07T07:11:27;3.13;;;2.83;;
44130;SDS011;29792;48.726;9.248;2023-05-07T07:13:52;4.72;;;3.17;;
44130;SDS011;29792;48.726;9.248;2023-05-07T07:16:19;2.63;;;2.42;;
44130;SDS011;29792;48.726;9.248;2023-05-07T07:18:45;3.88;;;3.10;;
44130;SDS011;29792;48.726;9.248;2023-05-07T07:21:10;3.33;;;2.90;;
44130;SDS011;29792;48.726;9.248;2023-05-07T07:23:36;3.38;;;3.08;;
44130;SDS011;29792;48.726;9.248;2023-05-07T07:26:01;4.18;;;2.80;;
44130;SDS011;29792;48.726;9.248;2023-05-07T07:28:26;3.70;;;2.95;;
44130;SDS011;29792;48.726;9.248;2023-05-07T07:30:51;5.32;;;3.75;;
44130;SDS011;29792;48.726;9.248;2023-05-07T07:33:17;5.78;;;3.22;;
44130;SDS011;29792;48.726;9.248;2023-05-07T07:35:42;4.85;;;2.92;;
44130;SDS011;29792;48.726;9.248;2023-05-07T07:38:07;3.00;;;2.70;;
44130;SDS011;29792;48.726;9.248;2023-05-07T07:40:34;4.32;;;2.92;;
44130;SDS011;29792;48.726;9.248;2023-05-07T07:43:00;2.58;;;2.38;;
44130;SDS011;29792;48.726;9.248;2023-05-07T07:45:26;2.78;;;2.58;;
44130;SDS011;29792;48.726;9.248;2023-05-07T07:47:51;3.42;;;2.67;;
44130;SDS011;29792;48.726;9.248;2023-05-07T07:50:17;2.50;;;2.30;;
44130;SDS011;29792;48.726;9.248;2023-05-07T07:52:42;2.90;;;2.70;;
44130;SDS011;29792;48.726;9.248;2023-05-07T07:55:07;3.92;;;2.90;;
44130;SDS011;29792;48.726;9.248;2023-05-07T07:57:33;3.08;;;2.30;;
44130;SDS011;29792;48.726;9.248;2023-05-07T07:59:58;3.70;;;2.65;;
44130;SDS011;29792;48.726;9.248;2023-05-07T08:02:23;4.13;;;2.60;;
44130;SDS011;29792;48.726;9.248;2023-05-07T08:04:49;3.58;;;2.90;;
44130;SDS011;29792;48.726;9.248;2023-05-07T08:07:14;3.13;;;2.67;;
44130;SDS011;29792;48.726;9.248;2023-05-07T08:09:40;2.53;;;2.33;;
44130;SDS011;29792;48.726;9.248;2023-05-07T08:12:06;2.47;;;2.20;;
44130;SDS011;29792;48.726;9.248;2023-05-07T08:14:32;2.83;;;2.63;;
44130;SDS011;29792;48.726;9.248;2023-05-07T08:16:57;4.47;;;2.60;;
44130;SDS011;29792;48.726;9.248;2023-05-07T08:19:22;2.05;;;1.60;;
44130;SDS011;29792;48.726;9.248;2023-05-07T08:21:48;4.25;;;3.05;;
44130;SDS011;29792;48.726;9.248;2023-05-07T08:24:14;3.55;;;2.78;;
44130;SDS011;29792;48.726;9.248;2023-05-07T08:26:39;2.40;;;2.13;;
44130;SDS011;29792;48.726;9.248;2023-05-07T08:29:05;2.80;;;1.98;;
44130;SDS011;29792;48.726;9.248;2023-05-07T08:31:30;4.55;;;2.35;;
44130;SDS011;29792;48.726;9.248;2023-05-07T08:33:56;3.13;;;2.15;;
44130;SDS011;29792;48.726;9.248;2023-05-07T08:36:22;3.42;;;2.88;;
44130;SDS011;29792;48.726;9.248;2023-05-07T08:38:48;2.58;;;2.38;;
44130;SDS011;29792;48.726;9.248;2023-05-07T08:41:14;3.95;;;3.35;;
44130;SDS011;29792;48.726;9.248;2023-05-07T08:43:40;2.72;;;2.53;;
44130;SDS011;29792;48.726;9.248;2023-05-07T08:46:06;2.95;;;2.08;;
44130;SDS011;29792;48.726;9.248;2023-05-07T08:48:34;2.63;;;2.42;;
44130;SDS011;29792;48.726;9.248;2023-05-07T08:51:00;2.60;;;2.40;;
44130;SDS011;29792;48.726;9.248;2023-05-07T08:53:26;2.33;;;1.70;;
44130;SDS011;29792;48.726;9.248;2023-05-07T08:55:51;2.20;;;2.00;;
44130;SDS011;29792;48.726;9.248;2023-05-07T08:58:18;4.50;;;1.90;;
44130;SDS011;29792;48.726;9.248;2023-05-07T09:00:43;2.47;;;1.92;;
44130;SDS011;29792;48.726;9.248;2023-05-07T09:03:09;2.25;;;2.05;;
44130;SDS011;29792;48.726;9.248;2023-05-07T09:05:37;2.60;;;1.88;;
44130;SDS011;29792;48.726;9.248;2023-05-07T09:08:02;3.60;;;1.95;;
44130;SDS011;29792;48.726;9.248;2023-05-07T09:10:30;2.70;;;2.15;;
44130;SDS011;29792;48.726;9.248;2023-05-07T09:12:58;5.03;;;3.05;;
44130;SDS011;29792;48.726;9.248;2023-05-07T09:15:24;2.03;;;1.55;;
44130;SDS011;29792;48.726;9.248;2023-05-07T09:17:50;4.97;;;1.85;;
44130;SDS011;29792;48.726;9.248;2023-05-07T09:20:15;5.72;;;2.47;;
44130;SDS011;29792;48.726;9.248;2023-05-07T09:22:41;2.10;;;1.90;;
44130;SDS011;29792;48.726;9.248;2023-05-07T09:25:07;4.75;;;1.65;;
44130;SDS011;29792;48.726;9.248;2023-05-07T09:27:34;2.22;;;1.63;;
44130;SDS011;29792;48.726;9.248;2023-05-07T09:29:59;3.17;;;1.92;;
44130;SDS011;29792;48.726;9.248;2023-05-07T09:32:28;3.15;;;2.20;;
44130;SDS011;29792;48.726;9.248;2023-05-07T09:34:55;3.22;;;2.92;;
44130;SDS011;29792;48.726;9.248;2023-05-07T09:37:21;2.22;;;1.50;;
44130;SDS011;29792;48.726;9.248;2023-05-07T09:39:47;1.92;;;1.20;;
44130;SDS011;29792;48.726;9.248;2023-05-07T09:42:13;2.03;;;1.52;;
44130;SDS011;29792;48.726;9.248;2023-05-07T09:44:45;4.00;;;2.15;;
44130;SDS011;29792;48.726;9.248;2023-05-07T09:47:10;9.07;;;2.25;;
44130;SDS011;29792;48.726;9.248;2023-05-07T09:49:37;2.13;;;1.88;;
44130;SDS011;29792;48.726;9.248;2023-05-07T09:52:05;1.70;;;1.60;;
44130;SDS011;29792;48.726;9.248;2023-05-07T09:54:33;2.40;;;2.08;;
44130;SDS011;29792;48.726;9.248;2023-05-07T09:57:01;2.78;;;2.05;;
44130;SDS011;29792;48.726;9.248;2023-05-07T09:59:28;1.73;;;1.60;;
44130;SDS011;29792;48.726;9.248;2023-05-07T10:01:56;2.03;;;1.38;;
44130;SDS011;29792;48.726;9.248;2023-05-07T10:04:24;1.55;;;1.00;;
44130;SDS011;29792;48.726;9.248;2023-05-07T10:06:50;2.80;;;1.20;;
44130;SDS011;29792;48.726;9.248;2023-05-07T10:09:16;2.50;;;1.80;;
44130;SDS011;29792;48.726;9.248;2023-05-07T10:11:42;2.75;;;1.52;;
44130;SDS011;29792;48.726;9.248;2023-05-07T10:14:08;2.72;;;1.27;;
44130;SDS011;29792;48.726;9.248;2023-05-07T10:16:35;1.50;;;1.40;;
44130;SDS011;29792;48.726;9.248;2023-05-07T10:19:02;2.83;;;1.88;;
44130;SDS011;29792;48.726;9.248;2023-05-07T10:21:28;5.35;;;2.17;;
44130;SDS011;29792;48.726;9.248;2023-05-07T10:23:57;1.83;;;1.27;;
44130;SDS011;29792;48.726;9.248;2023-05-07T10:26:43;1.42;;;0.93;;
44130;SDS011;29792;48.726;9.248;2023-05-07T10:29:12;3.58;;;1.33;;
44130;SDS011;29792;48.726;9.248;2023-05-07T10:31:48;6.20;;;1.85;;
44130;SDS011;29792;48.726;9.248;2023-05-07T10:34:21;6.35;;;2.13;;
44130;SDS011;29792;48.726;9.248;2023-05-07T10:36:52;1.40;;;1.27;;
44130;SDS011;29792;48.726;9.248;2023-05-07T10:39:20;2.00;;;1.42;;
44130;SDS011;29792;48.726;9.248;2023-05-07T10:41:46;2.97;;;1.65;;
44130;SDS011;29792;48.726;9.248;2023-05-07T10:44:12;1.30;;;0.88;;
44130;SDS011;29792;48.726;9.248;2023-05-07T10:47:11;2.50;;;1.23;;
44130;SDS011;29792;48.726;9.248;2023-05-07T10:49:37;1.92;;;1.33;;
44130;SDS011;29792;48.726;9.248;2023-05-07T10:52:27;1.67;;;1.23;;
44130;SDS011;29792;48.726;9.248;2023-05-07T10:57:39;2.17;;;1.52;;
44130;SDS011;29792;48.726;9.248;2023-05-07T11:00:47;3.00;;;1.35;;
44130;SDS011;29792;48.726;9.248;2023-05-07T11:05:29;2.03;;;1.10;;
44130;SDS011;29792;48.726;9.248;2023-05-07T11:07:58;4.78;;;1.65;;
44130;SDS011;29792;48.726;9.248;2023-05-07T11:13:15;1.23;;;1.08;;
44130;SDS011;29792;48.726;9.248;2023-05-07T11:15:42;2.70;;;1.55;;
44130;SDS011;29792;48.726;9.248;2023-05-07T11:18:12;2.30;;;2.10;;
44130;SDS011;29792;48.726;9.248;2023-05-07T11:25:59;2.60;;;0.85;;
44130;SDS011;29792;48.726;9.248;2023-05-07T11:28:25;2.42;;;1.20;;
44130;SDS011;29792;48.726;9.248;2023-05-07T11:30:52;2.25;;;1.20;;
44130;SDS011;29792;48.726;9.248;2023-05-07T11:33:18;5.00;;;1.83;;
44130;SDS011;29792;48.726;9.248;2023-05-07T11:35:43;1.13;;;1.02;;
44130;SDS011;29792;48.726;9.248;2023-05-07T11:38:10;1.42;;;1.17;;
44130;SDS011;29792;48.726;9.248;2023-05-07T11:40:47;1.38;;;1.15;;
44130;SDS011;29792;48.726;9.248;2023-05-07T11:43:25;2.17;;;1.10;;
44130;SDS011;29792;48.726;9.248;2023-05-07T11:45:51;3.05;;;1.52;;
44130;SDS011;29792;48.726;9.248;2023-05-07T11:48:16;1.38;;;0.85;;
44130;SDS011;29792;48.726;9.248;2023-05-07T11:50:59;2.55;;;1.00;;
44130;SDS011;29792;48.726;9.248;2023-05-07T11:53:27;1.52;;;0.82;;
44130;SDS011;29792;48.726;9.248;2023-05-07T11:55:59;1.30;;;1.20;;
44130;SDS011;29792;48.726;9.248;2023-05-07T11:58:25;2.58;;;1.17;;
44130;SDS011;29792;48.726;9.248;2023-05-07T12:00:53;2.67;;;1.42;;
44130;SDS011;29792;48.726;9.248;2023-05-07T12:03:19;1.33;;;0.80;;
44130;SDS011;29792;48.726;9.248;2023-05-07T12:05:45;1.85;;;1.30;;
44130;SDS011;29792;48.726;9.248;2023-05-07T12:08:15;2.92;;;2.05;;
44130;SDS011;29792;48.726;9.248;2023-05-07T12:10:44;2.08;;;0.80;;
44130;SDS011;29792;48.726;9.248;2023-05-07T12:13:19;1.80;;;0.90;;
44130;SDS011;29792;48.726;9.248;2023-05-07T12:15:46;5.38;;;1.27;;
44130;SDS011;29792;48.726;9.248;2023-05-07T12:18:15;1.67;;;0.90;;
44130;SDS011;29792;48.726;9.248;2023-05-07T12:20:40;1.67;;;0.88;;
44130;SDS011;29792;48.726;9.248;2023-05-07T12:23:06;0.95;;;0.82;;
44130;SDS011;29792;48.726;9.248;2023-05-07T12:25:32;2.50;;;1.27;;
44130;SDS011;29792;48.726;9.248;2023-05-07T12:28:00;1.48;;;1.15;;
44130;SDS011;29792;48.726;9.248;2023-05-07T12:30:25;2.20;;;1.20;;
44130;SDS011;29792;48.726;9.248;2023-05-07T12:32:55;1.42;;;1.00;;
44130;SDS011;29792;48.726;9.248;2023-05-07T12:35:27;0.77;;;0.77;;
44130;SDS011;29792;48.726;9.248;2023-05-07T12:37:57;1.85;;;1.10;;
44130;SDS011;29792;48.726;9.248;2023-05-07T12:40:24;1.02;;;0.80;;
44130;SDS011;29792;48.726;9.248;2023-05-07T12:42:52;1.73;;;0.82;;
44130;SDS011;29792;48.726;9.248;2023-05-07T12:45:19;2.55;;;1.13;;
44130;SDS011;29792;48.726;9.248;2023-05-07T12:47:44;1.73;;;1.00;;
44130;SDS011;29792;48.726;9.248;2023-05-07T12:50:10;1.17;;;1.08;;
44130;SDS011;29792;48.726;9.248;2023-05-07T12:52:36;2.85;;;1.33;;
44130;SDS011;29792;48.726;9.248;2023-05-07T12:55:05;2.47;;;1.00;;
44130;SDS011;29792;48.726;9.248;2023-05-07T12:57:37;9.05;;;1.80;;
44130;SDS011;29792;48.726;9.248;2023-05-07T13:00:12;2.83;;;0.68;;
44130;SDS011;29792;48.726;9.248;2023-05-07T13:02:39;2.75;;;0.80;;
44130;SDS011;29792;48.726;9.248;2023-05-07T13:05:05;1.85;;;0.60;;
44130;SDS011;29792;48.726;9.248;2023-05-07T13:07:31;2.03;;;1.20;;
44130;SDS011;29792;48.726;9.248;2023-05-07T13:09:57;3.10;;;0.93;;
44130;SDS011;29792;48.726;9.248;2023-05-07T13:12:22;2.33;;;0.95;;
44130;SDS011;29792;48.726;9.248;2023-05-07T13:14:47;1.75;;;1.17;;
44130;SDS011;29792;48.726;9.248;2023-05-07T13:17:12;2.05;;;1.40;;
44130;SDS011;29792;48.726;9.248;2023-05-07T13:19:38;3.80;;;1.10;;
44130;SDS011;29792;48.726;9.248;2023-05-07T13:22:03;3.63;;;0.75;;
44130;SDS011;29792;48.726;9.248;2023-05-07T13:24:29;2.15;;;1.20;;
44130;SDS011;29792;48.726;9.248;2023-05-07T13:26:54;3.53;;;0.90;;
44130;SDS011;29792;48.726;9.248;2023-05-07T13:29:19;1.80;;;1.00;;
44130;SDS011;29792;48.726;9.248;2023-05-07T13:31:46;3.13;;;1.10;;
44130;SDS011;29792;48.726;9.248;2023-05-07T13:34:11;4.10;;;1.88;;
44130;SDS011;29792;48.726;9.248;2023-05-07T13:36:36;2.28;;;1.15;;
44130;SDS011;29792;48.726;9.248;2023-05-07T13:39:04;8.88;;;2.22;;
44130;SDS011;29792;48.726;9.248;2023-05-07T13:41:31;1.90;;;1.20;;
44130;SDS011;29792;48.726;9.248;2023-05-07T13:43:56;4.03;;;0.77;;
44130;SDS011;29792;48.726;9.248;2023-05-07T13:46:21;1.90;;;0.80;;
44130;SDS011;29792;48.726;9.248;2023-05-07T13:48:46;1.42;;;0.60;;
44130;SDS011;29792;48.726;9.248;2023-05-07T13:51:12;1.92;;;0.65;;
44130;SDS011;29792;48.726;9.248;2023-05-07T13:53:37;0.32;;;0.30;;
44130;SDS011;29792;48.726;9.248;2023-05-07T13:56:02;1.15;;;0.60;;
44130;SDS011;29792;48.726;9.248;2023-05-07T13:58:29;1.65;;;0.70;;
44130;SDS011;29792;48.726;9.248;2023-05-07T14:00:54;2.10;;;0.82;;
44130;SDS011;29792;48.726;9.248;2023-05-07T14:03:20;1.92;;;0.70;;
44130;SDS011;29792;48.726;9.248;2023-05-07T14:05:45;1.27;;;0.60;;
44130;SDS011;29792;48.726;9.248;2023-05-07T14:08:10;2.28;;;1.13;;
44130;SDS011;29792;48.726;9.248;2023-05-07T14:10:37;1.42;;;1.10;;
44130;SDS011;29792;48.726;9.248;2023-05-07T14:13:02;1.75;;;0.95;;
44130;SDS011;29792;48.726;9.248;2023-05-07T14:15:28;1.42;;;1.15;;
44130;SDS011;29792;48.726;9.248;2023-05-07T14:17:53;2.42;;;2.22;;
44130;SDS011;29792;48.726;9.248;2023-05-07T14:20:18;4.95;;;1.95;;
44130;SDS011;29792;48.726;9.248;2023-05-07T14:22:44;2.75;;;1.42;;
44130;SDS011;29792;48.726;9.248;2023-05-07T14:25:10;6.72;;;1.70;;
44130;SDS011;29792;48.726;9.248;2023-05-07T14:27:35;4.43;;;1.45;;
44130;SDS011;29792;48.726;9.248;2023-05-07T14:30:00;1.92;;;1.40;;
44130;SDS011;29792;48.726;9.248;2023-05-07T14:32:25;5.72;;;1.65;;
44130;SDS011;29792;48.726;9.248;2023-05-07T14:34:51;3.03;;;1.80;;
44130;SDS011;29792;48.726;9.248;2023-05-07T14:37:16;5.53;;;2.13;;
44130;SDS011;29792;48.726;9.248;2023-05-07T14:39:42;2.97;;;1.95;;
44130;SDS011;29792;48.726;9.248;2023-05-07T14:42:08;5.63;;;1.95;;
44130;SDS011;29792;48.726;9.248;2023-05-07T14:44:34;3.45;;;1.73;;
44130;SDS011;29792;48.726;9.248;2023-05-07T14:47:00;2.35;;;1.92;;
44130;SDS011;29792;48.726;9.248;2023-05-07T14:49:25;3.83;;;1.50;;
44130;SDS011;29792;48.726;9.248;2023-05-07T14:51:50;1.85;;;1.58;;
44130;SDS011;29792;48.726;9.248;2023-05-07T14:54:16;3.15;;;1.58;;
44130;SDS011;29792;48.726;9.248;2023-05-07T14:56:41;3.83;;;1.70;;